Time;durP1;ratioP1;P1;durP2;ratioP2;P2;SDS_P1;SDS_P2;PMS_P1;PMS_P2;Temp;Humidity;BMP_temperature;BMP_pressure;BME280_temperature;BME280_humidity;BME280_pressure;Samples;Min_cycle;Max_cycle;Signal;HPM_P1;HPM_P2
2022/11/05 00:09:33;;;;;;;19.52;13.02;;;;;;;;;;5113313;28;20257;-65
2022/11/05 00:17:31;;;;;;;22.25;13.80;;;;;;;;;;5113220;28;20172;-66
2022/11/05 00:19:58;;;;;;;24.02;14.10;;;;;;;;;;5113523;28;20195;-66
2022/11/05 00:25:15;;;;;;;30.38;14.48;;;;;;;;;;5113254;28;20199;-67
2022/11/05 00:27:46;;;;;;;19.27;13.70;;;;;;;;;;5113654;28;20181;-67
2022/11/05 00:30:15;;;;;;;24.02;13.75;;;;;;;;;;5113588;28;20307;-67
2022/11/05 00:32:43;;;;;;;24.23;15.38;;;;;;;;;;5113124;28;20232;-66
2022/11/05 00:35:10;;;;;;;20.88;13.85;;;;;;;;;;5112794;28;20774;-67
2022/11/05 00:37:38;;;;;;;28.90;15.57;;;;;;;;;;5113207;28;20192;-66
2022/11/05 00:40:06;;;;;;;27.80;15.00;;;;;;;;;;5113116;28;20195;-67
2022/11/05 00:45:19;;;;;;;27.30;14.52;;;;;;;;;;5112971;28;20183;-66
2022/11/05 00:50:31;;;;;;;21.90;13.77;;;;;;;;;;5112773;28;20183;-66
2022/11/05 00:53:00;;;;;;;18.95;13.48;;;;;;;;;;5113056;28;20193;-66
2022/11/05 00:55:29;;;;;;;24.17;12.70;;;;;;;;;;5113026;28;20286;-67
2022/11/05 00:57:57;;;;;;;23.42;12.82;;;;;;;;;;5113056;28;20192;-66
2022/11/05 01:00:25;;;;;;;22.50;13.60;;;;;;;;;;5112851;28;20200;-67
2022/11/05 01:02:52;;;;;;;20.40;14.30;;;;;;;;;;5112591;28;20254;-66
2022/11/05 01:05:20;;;;;;;21.38;13.65;;;;;;;;;;5112852;28;20280;-67
2022/11/05 01:07:47;;;;;;;20.67;13.40;;;;;;;;;;5115179;28;20549;-67
2022/11/05 01:10:16;;;;;;;24.38;15.07;;;;;;;;;;5116458;28;20193;-66
2022/11/05 01:12:43;;;;;;;22.35;15.73;;;;;;;;;;5116586;28;20228;-66
2022/11/05 01:15:10;;;;;;;28.10;15.40;;;;;;;;;;5116980;28;20279;-66
2022/11/05 01:17:37;;;;;;;24.77;15.25;;;;;;;;;;5116381;28;20196;-66
2022/11/05 01:20:05;;;;;;;25.83;15.10;;;;;;;;;;5116295;28;20202;-66
2022/11/05 01:22:32;;;;;;;26.60;15.18;;;;;;;;;;5116841;28;20202;-67
2022/11/05 01:24:59;;;;;;;29.20;16.70;;;;;;;;;;5116447;28;20200;-66
2022/11/05 01:27:28;;;;;;;24.95;15.68;;;;;;;;;;5116505;28;20199;-66
2022/11/05 01:29:55;;;;;;;24.48;15.00;;;;;;;;;;5115809;28;20196;-67
2022/11/05 01:32:22;;;;;;;32.42;16.80;;;;;;;;;;5115670;28;20306;-66
2022/11/05 01:34:49;;;;;;;21.00;14.07;;;;;;;;;;5115679;28;20206;-67
2022/11/05 01:37:17;;;;;;;30.27;16.48;;;;;;;;;;5116040;28;20199;-66
2022/11/05 01:39:44;;;;;;;31.48;15.15;;;;;;;;;;5116376;28;20205;-66
2022/11/05 01:42:15;;;;;;;26.42;16.27;;;;;;;;;;5115603;28;20229;-66
2022/11/05 01:44:56;;;;;;;28.50;16.77;;;;;;;;;;5115522;28;20192;-66
2022/11/05 01:47:28;;;;;;;29.45;17.25;;;;;;;;;;5115663;28;20607;-66
2022/11/05 01:49:56;;;;;;;23.55;16.83;;;;;;;;;;5115635;28;20191;-66
2022/11/05 01:52:24;;;;;;;27.65;16.75;;;;;;;;;;5115572;28;20628;-66
2022/11/05 01:54:52;;;;;;;23.55;15.13;;;;;;;;;;5115723;28;20199;-66
2022/11/05 01:57:19;;;;;;;26.90;16.40;;;;;;;;;;5115598;28;20195;-66
2022/11/05 01:59:49;;;;;;;25.23;16.52;;;;;;;;;;5115631;28;20196;-65
2022/11/05 02:02:18;;;;;;;28.75;17.92;;;;;;;;;;5115385;28;20207;-66
2022/11/05 02:04:46;;;;;;;35.17;17.42;;;;;;;;;;5115413;28;20230;-66
2022/11/05 02:07:13;;;;;;;27.70;18.77;;;;;;;;;;5115010;28;20646;-66
2022/11/05 02:09:45;;;;;;;28.75;19.15;;;;;;;;;;5115384;28;20285;-66
2022/11/05 02:12:13;;;;;;;28.58;17.50;;;;;;;;;;5115037;28;20232;-66
2022/11/05 02:14:40;;;;;;;33.13;17.55;;;;;;;;;;5115292;28;20203;-66
2022/11/05 02:17:12;;;;;;;25.20;16.27;;;;;;;;;;5115132;28;20295;-66
2022/11/05 02:19:53;;;;;;;29.85;17.58;;;;;;;;;;5114839;28;20188;-66
2022/11/05 02:22:31;;;;;;;27.05;16.67;;;;;;;;;;5114980;28;20629;-66
2022/11/05 02:25:08;;;;;;;27.30;17.40;;;;;;;;;;5114892;28;20190;-66
2022/11/05 02:27:48;;;;;;;25.55;17.48;;;;;;;;;;5114645;28;20187;-66
2022/11/05 02:30:27;;;;;;;26.50;16.60;;;;;;;;;;5115073;28;20488;-66
2022/11/05 02:33:13;;;;;;;25.55;16.27;;;;;;;;;;5114850;28;20252;-65
2022/11/05 02:36:04;;;;;;;22.08;15.30;;;;;;;;;;5114761;28;20198;-67
2022/11/05 02:38:36;;;;;;;24.70;14.48;;;;;;;;;;5114975;28;20269;-66
2022/11/05 02:41:07;;;;;;;24.00;16.23;;;;;;;;;;5115170;28;20192;-66
2022/11/05 02:43:39;;;;;;;23.98;17.17;;;;;;;;;;5114705;28;20232;-65
2022/11/05 02:46:12;;;;;;;24.77;16.13;;;;;;;;;;5114630;28;20233;-66
2022/11/05 02:48:43;;;;;;;27.40;15.43;;;;;;;;;;5114371;28;20716;-66
2022/11/05 02:51:13;;;;;;;31.10;15.63;;;;;;;;;;5114581;28;20188;-66
2022/11/05 02:53:45;;;;;;;29.85;16.30;;;;;;;;;;5114993;28;20563;-66
2022/11/05 02:56:18;;;;;;;22.17;15.73;;;;;;;;;;5114246;28;20193;-66
2022/11/05 02:58:45;;;;;;;23.92;16.25;;;;;;;;;;5114989;28;20187;-66
2022/11/05 03:01:13;;;;;;;24.40;16.88;;;;;;;;;;5113935;28;20202;-67
2022/11/05 03:03:42;;;;;;;23.83;16.70;;;;;;;;;;5114808;28;20197;-66
2022/11/05 03:06:27;;;;;;;25.27;15.23;;;;;;;;;;5114213;28;20295;-66
2022/11/05 03:09:04;;;;;;;20.15;14.20;;;;;;;;;;5103998;28;20211;-66
2022/11/05 03:11:33;;;;;;;23.48;15.20;;;;;;;;;;5113865;28;20768;-66
2022/11/05 03:14:03;;;;;;;25.77;15.93;;;;;;;;;;5113852;28;20746;-66
2022/11/05 03:16:39;;;;;;;24.15;15.90;;;;;;;;;;5113772;28;20179;-66
2022/11/05 03:19:08;;;;;;;18.95;14.18;;;;;;;;;;5114363;28;20186;-68
2022/11/05 03:21:41;;;;;;;23.08;14.93;;;;;;;;;;5113817;28;20195;-66
2022/11/05 03:24:11;;;;;;;22.30;14.48;;;;;;;;;;5114094;28;20233;-66
2022/11/05 03:26:41;;;;;;;21.50;14.70;;;;;;;;;;5114073;28;20199;-65
2022/11/05 03:29:10;;;;;;;21.90;14.77;;;;;;;;;;5113794;28;20199;-66
2022/11/05 03:31:40;;;;;;;24.38;16.73;;;;;;;;;;5113567;28;20235;-67
2022/11/05 03:34:08;;;;;;;23.45;17.10;;;;;;;;;;5113511;28;20192;-66
2022/11/05 03:36:40;;;;;;;21.88;15.15;;;;;;;;;;5113381;28;20199;-67
2022/11/05 03:39:09;;;;;;;22.63;15.52;;;;;;;;;;5113953;28;20188;-66
2022/11/05 03:41:38;;;;;;;21.80;16.08;;;;;;;;;;5112918;28;20194;-66
2022/11/05 03:44:07;;;;;;;21.15;14.30;;;;;;;;;;5114055;28;20187;-66
2022/11/05 03:46:36;;;;;;;22.42;16.40;;;;;;;;;;5114108;28;20541;-67
2022/11/05 03:49:06;;;;;;;27.67;18.33;;;;;;;;;;5113722;28;20198;-67
2022/11/05 03:51:39;;;;;;;24.48;17.73;;;;;;;;;;5113174;28;20353;-66
2022/11/05 03:54:06;;;;;;;22.95;16.83;;;;;;;;;;5113750;28;20183;-66
2022/11/05 03:56:36;;;;;;;26.05;17.65;;;;;;;;;;5113585;28;20198;-66
2022/11/05 03:59:05;;;;;;;23.52;16.60;;;;;;;;;;5113175;28;20200;-66
2022/11/05 04:01:32;;;;;;;29.10;18.10;;;;;;;;;;5114058;28;20195;-66
2022/11/05 04:04:00;;;;;;;27.17;19.50;;;;;;;;;;5113099;28;20201;-66
2022/11/05 04:14:42;;;;;;;30.15;20.85;;;;;;;;;;5113462;28;20186;-66
2022/11/05 04:17:08;;;;;;;24.27;19.75;;;;;;;;;;5113858;28;20190;-67
2022/11/05 04:25:07;;;;;;;28.02;19.20;;;;;;;;;;5113425;28;20186;-67
2022/11/05 04:27:35;;;;;;;29.10;19.60;;;;;;;;;;5113520;28;20194;-66
2022/11/05 04:30:20;;;;;;;31.10;19.85;;;;;;;;;;5113259;28;20195;-66
2022/11/05 04:32:58;;;;;;;28.15;17.83;;;;;;;;;;5113058;28;20598;-66
2022/11/05 04:35:25;;;;;;;29.20;19.27;;;;;;;;;;5113106;28;20198;-66
2022/11/05 04:37:54;;;;;;;33.78;18.73;;;;;;;;;;5113233;28;20209;-69
2022/11/05 04:40:21;;;;;;;24.38;19.35;;;;;;;;;;5113074;28;20205;-67
2022/11/05 04:42:48;;;;;;;23.50;18.52;;;;;;;;;;5115488;28;20223;-67
2022/11/05 04:45:15;;;;;;;29.00;20.33;;;;;;;;;;5117058;28;20202;-67
2022/11/05 04:47:43;;;;;;;33.72;20.08;;;;;;;;;;5116810;28;20195;-67
2022/11/05 04:50:12;;;;;;;25.88;18.95;;;;;;;;;;5116910;28;20192;-67
2022/11/05 04:52:39;;;;;;;27.20;19.50;;;;;;;;;;5116708;28;20250;-68
2022/11/05 04:55:08;;;;;;;25.63;20.02;;;;;;;;;;5116800;28;20197;-67
2022/11/05 04:57:36;;;;;;;27.85;20.13;;;;;;;;;;5116505;28;20210;-67
2022/11/05 05:00:04;;;;;;;28.73;20.60;;;;;;;;;;5116392;28;20203;-67
2022/11/05 05:02:32;;;;;;;32.15;19.55;;;;;;;;;;5116244;28;20206;-67
2022/11/05 05:04:59;;;;;;;26.08;18.90;;;;;;;;;;5116681;28;20277;-67
2022/11/05 05:07:27;;;;;;;26.17;19.02;;;;;;;;;;5117048;28;20195;-67
2022/11/05 05:09:54;;;;;;;30.30;19.60;;;;;;;;;;5116520;28;20251;-67
2022/11/05 05:12:23;;;;;;;27.75;19.60;;;;;;;;;;5116344;28;20221;-67
2022/11/05 05:14:50;;;;;;;29.33;17.77;;;;;;;;;;5116416;28;20549;-67
2022/11/05 05:17:17;;;;;;;27.08;18.92;;;;;;;;;;5116426;28;20525;-67
2022/11/05 05:22:29;;;;;;;29.45;20.50;;;;;;;;;;5116216;28;20370;-67
2022/11/05 05:24:58;;;;;;;48.47;19.98;;;;;;;;;;5116205;28;20220;-67
2022/11/05 05:27:28;;;;;;;35.92;19.92;;;;;;;;;;5115897;28;20190;-67
2022/11/05 05:29:56;;;;;;;31.50;19.08;;;;;;;;;;5116572;28;20606;-67
2022/11/05 05:32:23;;;;;;;26.67;18.95;;;;;;;;;;5116043;28;20219;-67
2022/11/05 05:34:51;;;;;;;28.08;20.60;;;;;;;;;;5116072;28;20284;-67
2022/11/05 05:37:18;;;;;;;32.00;18.65;;;;;;;;;;5115951;28;20194;-67
2022/11/05 05:39:46;;;;;;;42.63;19.42;;;;;;;;;;5115840;28;20200;-67
2022/11/05 05:42:14;;;;;;;28.42;18.90;;;;;;;;;;5115957;28;20291;-67
2022/11/05 05:44:42;;;;;;;34.17;18.50;;;;;;;;;;5117131;28;20293;-67
2022/11/05 05:47:10;;;;;;;35.58;19.92;;;;;;;;;;5118048;28;20194;-67
2022/11/05 05:49:37;;;;;;;28.38;18.98;;;;;;;;;;5118420;28;20202;-67
2022/11/05 05:52:04;;;;;;;40.33;18.52;;;;;;;;;;5116834;27;20213;-69
2022/11/05 05:54:31;;;;;;;26.45;19.00;;;;;;;;;;5114936;28;20195;-66
2022/11/05 05:56:59;;;;;;;28.75;18.23;;;;;;;;;;5115354;28;20638;-66
2022/11/05 05:59:26;;;;;;;26.13;18.75;;;;;;;;;;5115410;28;20199;-66
2022/11/05 06:01:54;;;;;;;25.20;18.40;;;;;;;;;;5115139;28;20195;-67
2022/11/05 06:04:21;;;;;;;28.20;19.70;;;;;;;;;;5115374;28;20225;-67
2022/11/05 06:06:49;;;;;;;32.80;20.15;;;;;;;;;;5115397;28;20191;-66
2022/11/05 06:09:16;;;;;;;32.15;19.23;;;;;;;;;;5115341;28;20283;-67
2022/11/05 06:11:43;;;;;;;30.73;20.40;;;;;;;;;;5115212;28;20201;-67
2022/11/05 06:14:11;;;;;;;33.40;20.88;;;;;;;;;;5114833;28;20228;-67
2022/11/05 06:16:38;;;;;;;27.95;19.67;;;;;;;;;;5115416;28;20284;-67
2022/11/05 06:19:07;;;;;;;30.90;19.73;;;;;;;;;;5115108;28;20200;-67
2022/11/05 06:21:34;;;;;;;32.78;21.42;;;;;;;;;;5115171;28;20195;-67
2022/11/05 06:24:02;;;;;;;29.70;20.60;;;;;;;;;;5114735;28;20651;-67
2022/11/05 06:26:29;;;;;;;31.83;20.40;;;;;;;;;;5115256;28;20201;-67
2022/11/05 06:28:56;;;;;;;27.02;19.70;;;;;;;;;;5114539;28;20661;-67
2022/11/05 06:31:23;;;;;;;30.67;20.73;;;;;;;;;;5115042;28;20287;-67
2022/11/05 06:33:50;;;;;;;29.95;21.23;;;;;;;;;;5114814;28;20218;-67
2022/11/05 06:36:20;;;;;;;29.38;21.05;;;;;;;;;;5114454;28;20196;-67
2022/11/05 06:38:47;;;;;;;36.17;20.95;;;;;;;;;;5114787;28;20208;-66
2022/11/05 06:41:14;;;;;;;38.33;21.25;;;;;;;;;;5114829;28;20204;-67
2022/11/05 06:43:42;;;;;;;36.55;20.85;;;;;;;;;;5114794;28;20226;-67
2022/11/05 06:46:10;;;;;;;28.77;21.90;;;;;;;;;;5114749;28;20195;-67
2022/11/05 06:48:37;;;;;;;29.27;20.83;;;;;;;;;;5114506;28;20557;-67
2022/11/05 06:51:05;;;;;;;33.50;22.15;;;;;;;;;;5114168;28;20207;-67
2022/11/05 06:53:34;;;;;;;37.85;21.95;;;;;;;;;;5114460;28;20564;-67
2022/11/05 06:56:04;;;;;;;37.10;22.15;;;;;;;;;;5114510;28;20220;-69
2022/11/05 06:58:32;;;;;;;36.33;21.08;;;;;;;;;;5114697;28;20519;-68
2022/11/05 07:01:02;;;;;;;33.67;21.08;;;;;;;;;;5114377;28;20190;-68
2022/11/05 07:03:29;;;;;;;43.83;22.55;;;;;;;;;;5114323;28;20198;-67
2022/11/05 07:05:57;;;;;;;35.50;21.88;;;;;;;;;;5113376;28;20203;-67
2022/11/05 07:08:24;;;;;;;40.47;21.73;;;;;;;;;;5114277;28;20200;-69
2022/11/05 07:10:53;;;;;;;37.53;21.95;;;;;;;;;;5113700;28;20215;-66
2022/11/05 07:13:20;;;;;;;35.65;23.95;;;;;;;;;;5114383;28;20218;-66
2022/11/05 07:15:47;;;;;;;39.10;22.42;;;;;;;;;;5114163;28;20199;-66
2022/11/05 07:18:15;;;;;;;40.70;24.05;;;;;;;;;;5113699;28;20293;-66
2022/11/05 07:20:42;;;;;;;35.50;22.52;;;;;;;;;;5113609;28;20195;-66
2022/11/05 07:23:11;;;;;;;44.20;23.85;;;;;;;;;;5114313;28;20198;-66
2022/11/05 07:25:38;;;;;;;39.92;22.55;;;;;;;;;;5113834;28;20195;-65
2022/11/05 07:28:07;;;;;;;49.58;22.48;;;;;;;;;;5114288;28;20202;-66
2022/11/05 07:30:35;;;;;;;49.35;25.73;;;;;;;;;;5113530;28;20248;-66
2022/11/05 07:33:03;;;;;;;42.42;22.05;;;;;;;;;;5114020;28;20217;-66
2022/11/05 07:35:30;;;;;;;42.08;23.58;;;;;;;;;;5115032;28;20195;-66
2022/11/05 07:37:57;;;;;;;53.70;24.67;;;;;;;;;;5114386;28;20199;-66
2022/11/05 07:40:26;;;;;;;39.47;23.02;;;;;;;;;;5114253;28;20294;-66
2022/11/05 07:42:54;;;;;;;37.25;22.90;;;;;;;;;;5115091;28;20570;-66
2022/11/05 07:45:22;;;;;;;37.00;23.73;;;;;;;;;;5114973;28;20279;-66
2022/11/05 07:47:50;;;;;;;50.58;24.70;;;;;;;;;;5114913;28;20196;-66
2022/11/05 07:50:18;;;;;;;54.65;23.25;;;;;;;;;;5114232;28;20197;-65
2022/11/05 07:52:46;;;;;;;42.67;26.42;;;;;;;;;;5113749;28;20195;-66
2022/11/05 07:55:14;;;;;;;43.65;24.52;;;;;;;;;;5114463;28;20574;-65
2022/11/05 07:57:42;;;;;;;40.28;23.27;;;;;;;;;;5113844;28;20213;-65
2022/11/05 08:00:10;;;;;;;45.75;26.52;;;;;;;;;;5113887;28;20195;-66
2022/11/05 08:02:38;;;;;;;41.38;25.33;;;;;;;;;;5113656;28;20192;-65
2022/11/05 08:05:06;;;;;;;45.47;26.77;;;;;;;;;;5113498;28;20201;-65
2022/11/05 08:07:38;;;;;;;45.65;25.95;;;;;;;;;;5113328;28;20192;-66
2022/11/05 08:10:05;;;;;;;46.70;25.63;;;;;;;;;;5113329;28;20200;-66
2022/11/05 08:12:33;;;;;;;43.17;26.80;;;;;;;;;;5113817;28;20665;-66
2022/11/05 08:15:00;;;;;;;43.58;26.38;;;;;;;;;;5113315;28;20203;-66
2022/11/05 08:17:27;;;;;;;42.97;25.38;;;;;;;;;;5117118;28;20596;-65
2022/11/05 08:19:56;;;;;;;41.35;23.92;;;;;;;;;;5117902;28;20580;-66
2022/11/05 08:22:23;;;;;;;38.15;23.50;;;;;;;;;;5117536;28;20206;-65
2022/11/05 08:24:50;;;;;;;40.22;24.63;;;;;;;;;;5117395;28;20294;-66
2022/11/05 08:27:17;;;;;;;34.00;23.45;;;;;;;;;;5116858;28;20212;-66
2022/11/05 08:29:45;;;;;;;30.90;21.35;;;;;;;;;;5117341;28;20286;-66
2022/11/05 08:32:12;;;;;;;32.67;21.58;;;;;;;;;;5117280;28;20201;-67
2022/11/05 08:34:39;;;;;;;36.90;21.67;;;;;;;;;;5116823;28;20231;-67
2022/11/05 08:37:08;;;;;;;33.35;22.13;;;;;;;;;;5117004;28;20556;-66
2022/11/05 08:39:35;;;;;;;33.25;24.00;;;;;;;;;;5117229;28;20199;-66
2022/11/05 08:42:02;;;;;;;29.63;21.92;;;;;;;;;;5116681;28;20222;-65
2022/11/05 08:44:29;;;;;;;29.27;22.52;;;;;;;;;;5117503;28;20256;-66
2022/11/05 08:46:57;;;;;;;26.08;20.45;;;;;;;;;;5117049;28;20557;-66
2022/11/05 08:49:24;;;;;;;31.63;21.88;;;;;;;;;;5116916;28;20196;-66
2022/11/05 08:51:51;;;;;;;31.38;22.25;;;;;;;;;;5116468;28;20660;-66
2022/11/05 08:54:20;;;;;;;31.77;22.75;;;;;;;;;;5116669;28;20231;-66
2022/11/05 08:56:47;;;;;;;26.02;21.30;;;;;;;;;;5116692;28;20227;-66
2022/11/05 08:59:14;;;;;;;29.85;19.75;;;;;;;;;;5116282;28;20199;-66
2022/11/05 09:01:41;;;;;;;28.98;22.23;;;;;;;;;;5116293;28;20650;-66
2022/11/05 09:04:09;;;;;;;29.88;21.80;;;;;;;;;;5116664;28;20199;-66
2022/11/05 09:06:36;;;;;;;25.33;20.13;;;;;;;;;;5116742;28;20196;-68
2022/11/05 09:09:03;;;;;;;29.92;19.52;;;;;;;;;;5116299;28;20716;-66
2022/11/05 09:11:32;;;;;;;24.95;20.58;;;;;;;;;;5116447;28;20231;-66
2022/11/05 09:13:59;;;;;;;32.20;18.98;;;;;;;;;;5116070;27;20681;-65
2022/11/05 09:16:26;;;;;;;27.13;19.02;;;;;;;;;;5116326;28;20283;-65
2022/11/05 09:18:55;;;;;;;26.73;18.40;;;;;;;;;;5116483;28;20258;-66
2022/11/05 09:21:22;;;;;;;26.13;18.42;;;;;;;;;;5116676;28;20199;-65
2022/11/05 09:23:49;;;;;;;23.27;18.40;;;;;;;;;;5116116;28;20716;-65
2022/11/05 09:26:16;;;;;;;25.38;19.65;;;;;;;;;;5116335;28;20221;-66
2022/11/05 09:28:45;;;;;;;26.55;19.10;;;;;;;;;;5115555;28;20210;-66
2022/11/05 09:31:12;;;;;;;21.70;17.38;;;;;;;;;;5116401;28;20200;-67
2022/11/05 09:33:41;;;;;;;22.92;18.35;;;;;;;;;;5115828;28;20308;-66
2022/11/05 09:36:08;;;;;;;19.48;16.73;;;;;;;;;;5116407;28;20303;-66
2022/11/05 09:38:36;;;;;;;21.08;18.35;;;;;;;;;;5116076;28;20436;-66
2022/11/05 09:41:04;;;;;;;21.65;16.75;;;;;;;;;;5116003;27;20286;-66
2022/11/05 09:43:34;;;;;;;24.65;17.10;;;;;;;;;;5115982;28;20232;-67
2022/11/05 09:46:07;;;;;;;20.15;16.30;;;;;;;;;;5116161;28;20200;-66
2022/11/05 09:48:34;;;;;;;21.33;14.50;;;;;;;;;;5115691;28;20181;-65
2022/11/05 09:51:01;;;;;;;18.52;15.68;;;;;;;;;;5115941;28;20208;-65
2022/11/05 09:53:29;;;;;;;21.03;16.93;;;;;;;;;;5115683;28;20213;-66
2022/11/05 09:55:57;;;;;;;22.30;16.67;;;;;;;;;;5115346;28;20537;-66
2022/11/05 09:58:29;;;;;;;20.50;15.07;;;;;;;;;;5115945;28;20741;-66
2022/11/05 10:00:57;;;;;;;21.00;13.60;;;;;;;;;;5115275;28;20272;-66
2022/11/05 10:03:28;;;;;;;16.35;13.65;;;;;;;;;;5115460;28;20203;-66
2022/11/05 10:05:56;;;;;;;17.42;13.45;;;;;;;;;;5115852;28;20276;-65
2022/11/05 10:08:26;;;;;;;20.80;15.13;;;;;;;;;;5115548;28;20212;-65
2022/11/05 10:10:55;;;;;;;18.67;14.18;;;;;;;;;;5115419;28;20283;-65
2022/11/05 10:13:25;;;;;;;16.80;12.07;;;;;;;;;;5114764;28;20287;-66
2022/11/05 10:15:56;;;;;;;16.50;13.63;;;;;;;;;;5115510;28;20462;-66
2022/11/05 10:18:25;;;;;;;16.10;12.82;;;;;;;;;;5115527;28;20286;-65
2022/11/05 10:20:53;;;;;;;18.40;14.00;;;;;;;;;;5115361;28;20197;-65
2022/11/05 10:23:22;;;;;;;15.63;13.10;;;;;;;;;;5115176;28;20199;-66
2022/11/05 10:25:51;;;;;;;20.13;13.88;;;;;;;;;;5114834;28;20200;-66
2022/11/05 10:28:20;;;;;;;15.50;12.87;;;;;;;;;;5114590;28;20654;-66
2022/11/05 10:30:49;;;;;;;16.40;12.60;;;;;;;;;;5115455;28;20525;-66
2022/11/05 10:33:25;;;;;;;15.02;11.48;;;;;;;;;;5115402;28;20555;-66
2022/11/05 10:35:56;;;;;;;15.03;12.00;;;;;;;;;;5115464;28;20630;-66
2022/11/05 10:38:23;;;;;;;15.23;11.07;;;;;;;;;;5114080;28;20435;-66
2022/11/05 10:40:55;;;;;;;15.27;10.53;;;;;;;;;;5114807;28;20199;-65
2022/11/05 10:43:25;;;;;;;15.63;10.50;;;;;;;;;;5114699;28;20474;-66
2022/11/05 10:45:56;;;;;;;16.60;10.40;;;;;;;;;;5115514;28;20432;-66
2022/11/05 10:48:31;;;;;;;13.70;10.30;;;;;;;;;;5114300;28;20445;-66
2022/11/05 10:51:00;;;;;;;9.83;8.83;;;;;;;;;;5114627;28;20790;-66
2022/11/05 10:53:29;;;;;;;15.20;9.43;;;;;;;;;;5114620;28;20449;-66
2022/11/05 10:56:00;;;;;;;20.47;11.83;;;;;;;;;;5114733;28;20525;-66
2022/11/05 10:58:28;;;;;;;15.03;10.60;;;;;;;;;;5114157;28;20453;-66
2022/11/05 11:01:03;;;;;;;13.63;10.20;;;;;;;;;;5114073;27;20450;-66
2022/11/05 11:03:34;;;;;;;15.03;9.90;;;;;;;;;;5114103;28;20436;-66
2022/11/05 11:06:03;;;;;;;12.93;8.93;;;;;;;;;;5114356;28;20455;-66
2022/11/05 11:08:33;;;;;;;15.67;8.53;;;;;;;;;;5114016;27;20449;-67
2022/11/05 11:11:04;;;;;;;12.17;8.40;;;;;;;;;;5114876;28;20936;-66
2022/11/05 11:13:47;;;;;;;10.53;8.37;;;;;;;;;;5114975;28;20457;-66
2022/11/05 11:16:15;;;;;;;14.47;9.40;;;;;;;;;;5114687;28;20426;-66
2022/11/05 11:18:43;;;;;;;10.70;8.00;;;;;;;;;;5114133;28;20434;-66
2022/11/05 11:21:15;;;;;;;9.67;7.93;;;;;;;;;;5114144;28;20871;-66
2022/11/05 11:23:43;;;;;;;9.50;7.63;;;;;;;;;;5114035;28;20437;-66
2022/11/05 11:26:11;;;;;;;15.50;8.90;;;;;;;;;;5114358;28;20444;-65
2022/11/05 11:28:40;;;;;;;8.87;7.83;;;;;;;;;;5113915;28;20449;-66
2022/11/05 11:31:09;;;;;;;11.27;7.70;;;;;;;;;;5114173;28;20521;-65
2022/11/05 11:33:38;;;;;;;9.80;7.53;;;;;;;;;;5114167;28;20442;-65
2022/11/05 11:36:06;;;;;;;13.77;8.87;;;;;;;;;;5113522;28;20955;-66
2022/11/05 11:38:35;;;;;;;12.83;8.80;;;;;;;;;;5113360;28;20450;-64
2022/11/05 11:41:06;;;;;;;10.27;8.50;;;;;;;;;;5113874;28;20441;-65
2022/11/05 11:43:36;;;;;;;16.40;8.40;;;;;;;;;;5113276;28;20784;-65
2022/11/05 11:46:04;;;;;;;25.00;8.57;;;;;;;;;;5113315;28;20530;-65
2022/11/05 11:48:34;;;;;;;14.80;8.80;;;;;;;;;;5113543;28;20446;-66
2022/11/05 11:51:16;;;;;;;10.97;7.80;;;;;;;;;;5113086;28;20907;-65
2022/11/05 11:53:44;;;;;;;10.70;7.40;;;;;;;;;;5113447;28;20426;-65
2022/11/05 11:56:19;;;;;;;11.33;8.20;;;;;;;;;;5113512;28;20525;-65
2022/11/05 11:58:47;;;;;;;7.30;6.37;;;;;;;;;;5113121;28;20452;-65
2022/11/05 12:01:36;;;;;;;11.80;7.77;;;;;;;;;;5113186;28;20935;-65
2022/11/05 12:04:07;;;;;;;10.60;6.60;;;;;;;;;;5114289;28;20528;-65
2022/11/05 12:06:36;;;;;;;12.00;6.23;;;;;;;;;;5113861;28;20434;-65
2022/11/05 12:09:09;;;;;;;8.17;5.97;;;;;;;;;;5113071;28;20474;-65
2022/11/05 12:11:39;;;;;;;12.30;6.47;;;;;;;;;;5113461;28;20435;-65
2022/11/05 12:14:13;;;;;;;9.60;5.70;;;;;;;;;;5112970;28;21020;-65
2022/11/05 12:16:53;;;;;;;12.70;6.17;;;;;;;;;;5113926;28;20439;-65
2022/11/05 12:19:25;;;;;;;14.60;6.17;;;;;;;;;;5113496;28;20517;-65
2022/11/05 12:21:56;;;;;;;8.87;6.40;;;;;;;;;;5113078;28;20433;-65
2022/11/05 12:24:41;;;;;;;11.27;5.63;;;;;;;;;;5112976;28;20435;-64
2022/11/05 12:27:17;;;;;;;10.97;5.90;;;;;;;;;;5103272;28;20484;-64
2022/11/05 12:29:50;;;;;;;8.67;6.63;;;;;;;;;;5113444;28;20424;-64
2022/11/05 12:32:27;;;;;;;9.37;5.70;;;;;;;;;;5113358;28;20425;-64
2022/11/05 12:34:57;;;;;;;8.87;6.17;;;;;;;;;;5113374;28;20473;-65
2022/11/05 12:37:28;;;;;;;6.30;5.50;;;;;;;;;;5113454;28;20526;-64
2022/11/05 12:40:05;;;;;;;8.63;5.50;;;;;;;;;;5112757;28;20445;-64
2022/11/05 12:42:40;;;;;;;6.43;4.90;;;;;;;;;;5113513;28;20931;-64
2022/11/05 12:45:16;;;;;;;9.47;5.00;;;;;;;;;;5113280;28;20911;-65
2022/11/05 12:47:53;;;;;;;5.23;4.47;;;;;;;;;;5113626;28;20445;-63
2022/11/05 12:50:25;;;;;;;6.60;4.23;;;;;;;;;;5112736;28;20510;-64
2022/11/05 12:53:09;;;;;;;10.40;3.87;;;;;;;;;;5112804;28;20905;-64
2022/11/05 12:55:38;;;;;;;5.17;4.57;;;;;;;;;;5112958;28;20571;-65
2022/11/05 12:58:09;;;;;;;6.23;4.10;;;;;;;;;;5113532;28;20484;-66
2022/11/05 13:00:37;;;;;;;16.33;4.00;;;;;;;;;;5112564;28;20958;-66
2022/11/05 13:03:15;;;;;;;5.67;4.00;;;;;;;;;;5113871;28;20538;-66
2022/11/05 13:05:45;;;;;;;6.03;3.83;;;;;;;;;;5116657;28;20522;-66
2022/11/05 13:08:14;;;;;;;4.43;3.40;;;;;;;;;;5116538;28;20788;-66
2022/11/05 13:10:45;;;;;;;5.60;4.13;;;;;;;;;;5116098;28;20440;-66
2022/11/05 13:13:16;;;;;;;5.80;4.20;;;;;;;;;;5116338;28;20505;-66
2022/11/05 13:15:49;;;;;;;7.33;4.23;;;;;;;;;;5116349;28;20464;-66
2022/11/05 13:18:19;;;;;;;14.20;4.50;;;;;;;;;;5116296;28;20427;-66
2022/11/05 13:20:49;;;;;;;9.00;4.17;;;;;;;;;;5116151;28;20535;-67
2022/11/05 13:23:22;;;;;;;5.87;4.40;;;;;;;;;;5116889;28;20526;-67
2022/11/05 13:25:52;;;;;;;6.77;4.27;;;;;;;;;;5116091;28;20908;-66
2022/11/05 13:28:26;;;;;;;10.83;4.20;;;;;;;;;;5116095;28;20439;-66
2022/11/05 13:30:55;;;;;;;10.50;4.83;;;;;;;;;;5116614;28;20776;-66
2022/11/05 13:33:24;;;;;;;13.30;4.47;;;;;;;;;;5116215;28;20435;-66
2022/11/05 13:38:58;;;;;;;5.93;4.33;;;;;;;;;;5115937;28;20567;-66
2022/11/05 13:39:05;;;;;;;4.97;4.17;;;;;;;;;;5115896;28;20484;-65
2022/11/05 13:41:38;;;;;;;5.40;4.90;;;;;;;;;;5115256;28;20531;-67
2022/11/05 13:44:13;;;;;;;9.10;5.00;;;;;;;;;;5115685;28;20466;-65
2022/11/05 13:46:53;;;;;;;6.77;4.90;;;;;;;;;;5115929;28;20778;-66
2022/11/05 13:49:44;;;;;;;7.90;5.60;;;;;;;;;;5115701;28;20472;-66
2022/11/05 13:52:22;;;;;;;8.13;5.33;;;;;;;;;;5115643;28;20468;-66
2022/11/05 13:55:06;;;;;;;7.10;5.33;;;;;;;;;;5115652;27;20462;-66
2022/11/05 13:57:41;;;;;;;7.87;5.33;;;;;;;;;;5115523;28;20511;-66
2022/11/05 14:00:15;;;;;;;7.87;5.13;;;;;;;;;;5115738;28;20929;-66
2022/11/05 14:02:44;;;;;;;9.07;5.17;;;;;;;;;;5115455;28;20428;-66
2022/11/05 14:05:21;;;;;;;11.63;6.03;;;;;;;;;;5115742;28;20539;-65
2022/11/05 14:07:48;;;;;;;14.30;5.73;;;;;;;;;;5115017;28;20439;-65
2022/11/05 14:10:22;;;;;;;7.43;5.23;;;;;;;;;;5115773;28;20445;-65
2022/11/05 14:12:50;;;;;;;10.00;6.20;;;;;;;;;;5115594;28;20478;-65
2022/11/05 14:15:21;;;;;;;8.30;5.43;;;;;;;;;;5114876;28;20487;-65
2022/11/05 14:17:56;;;;;;;9.37;5.60;;;;;;;;;;5115185;28;20446;-66
2022/11/05 14:20:41;;;;;;;6.53;5.37;;;;;;;;;;5115228;28;20461;-66
2022/11/05 14:23:29;;;;;;;5.63;5.13;;;;;;;;;;5115858;28;20424;-66
2022/11/05 14:25:58;;;;;;;6.90;5.73;;;;;;;;;;5115675;28;20439;-66
2022/11/05 14:28:29;;;;;;;8.10;6.07;;;;;;;;;;5115118;28;20876;-67
2022/11/05 14:30:57;;;;;;;10.40;7.00;;;;;;;;;;5114982;28;20436;-66
2022/11/05 14:33:32;;;;;;;9.17;5.90;;;;;;;;;;5115542;28;20440;-66
2022/11/05 14:36:17;;;;;;;6.43;5.83;;;;;;;;;;5114851;28;20853;-67
2022/11/05 14:38:46;;;;;;;7.00;5.50;;;;;;;;;;5114753;28;20522;-66
2022/11/05 14:41:14;;;;;;;7.33;6.43;;;;;;;;;;5114691;28;20466;-66
2022/11/05 14:43:45;;;;;;;6.70;5.90;;;;;;;;;;5115231;28;20467;-66
2022/11/05 14:46:14;;;;;;;7.27;5.60;;;;;;;;;;5114184;28;20928;-66
2022/11/05 14:48:43;;;;;;;6.33;5.47;;;;;;;;;;5114467;27;20785;-66
2022/11/05 14:51:25;;;;;;;8.93;6.43;;;;;;;;;;5114176;28;20443;-66
2022/11/05 14:53:58;;;;;;;7.90;6.30;;;;;;;;;;5112040;28;20475;-66
2022/11/05 14:56:26;;;;;;;7.67;6.00;;;;;;;;;;5114630;28;20467;-66
2022/11/05 14:59:13;;;;;;;6.47;5.80;;;;;;;;;;5114091;28;20451;-67
2022/11/05 15:01:55;;;;;;;9.27;6.33;;;;;;;;;;5114375;28;20546;-66
2022/11/05 15:04:27;;;;;;;9.40;6.20;;;;;;;;;;5114546;28;20446;-66
2022/11/05 15:07:14;;;;;;;9.30;6.60;;;;;;;;;;5114699;28;20427;-67
2022/11/05 15:09:43;;;;;;;8.40;6.20;;;;;;;;;;5113809;28;20943;-67
2022/11/05 15:12:14;;;;;;;7.60;6.03;;;;;;;;;;5113494;28;20465;-66
2022/11/05 15:14:47;;;;;;;8.03;6.30;;;;;;;;;;5114504;28;20427;-66
2022/11/05 15:17:18;;;;;;;10.17;6.40;;;;;;;;;;5113723;28;20517;-66
2022/11/05 15:19:47;;;;;;;8.33;5.90;;;;;;;;;;5114064;28;20822;-66